WetterOnline ( https://www.wetteronline.de )

Wetter aktuell Eigenrode

Aktuelles Wetter: Leinefelde (356m)

6-stündlich | Neueste Meldungen
Ortszeit Temperatur Wetter
Do, 02.02. 7:00 2.8° C bedeckt
Do, 02.02. 1:00 3.0° C bewölkt
Mi, 01.02. 19:00 2.5° C bedeckt
Mi, 01.02. 13:00 4.5° C bewölkt
Mi, 01.02. 7:00 3.4° C leichter Regen
Mi, 01.02. 1:00 3.7° C bewölkt
Di, 31.01. 19:00 3.5° C Sprühregen
Di, 31.01. 13:00 3.0° C Sprühregen
Ortszeit Temperatur Wetter
Do, 02.02. 8:30 3.3° C bedeckt
Do, 02.02. 8:20 3.3° C bedeckt
Do, 02.02. 8:10 3.4° C bedeckt
Do, 02.02. 8:00 3.3° C bedeckt
Do, 02.02. 7:50 3.3° C Sprühregen
Do, 02.02. 7:40 3.2° C bedeckt
Do, 02.02. 7:30 3.1° C bedeckt
Do, 02.02. 7:00 2.8° C bedeckt
Do, 02.02. 6:30 2.8° C wolkig
Do, 02.02. 6:00 2.6° C bewölkt
Do, 02.02. 5:30 2.9° C bewölkt
Ortszeit Relative Feuchte Sichtweite
Do, 02.02. 7:00 84% 35 km
Do, 02.02. 1:00 81% 35 km
Mi, 01.02. 19:00 92% 45 km
Mi, 01.02. 13:00 71% 40 km
Mi, 01.02. 7:00 78% 27 km
Mi, 01.02. 1:00 80% 28 km
Di, 31.01. 19:00 93% 17 km
Di, 31.01. 13:00 89% 8 km
Ortszeit Relative Feuchte Sichtweite
Do, 02.02. 8:30 74% 50 km
Do, 02.02. 8:20 74% -
Do, 02.02. 8:10 78% -
Do, 02.02. 8:00 82% 30 km
Do, 02.02. 7:50 82% -
Do, 02.02. 7:40 82% -
Do, 02.02. 7:30 82% 35 km
Do, 02.02. 7:00 84% 35 km
Do, 02.02. 6:30 82% 35 km
Do, 02.02. 6:00 82% 35 km
Do, 02.02. 5:30 79% 30 km
Ortszeit Niederschlagsmenge Niederschlagsart
Do, 02.02. 7:00 0.0 l/m2 in 12 Std. -
Do, 02.02. 1:00 0.0 l/m2 in 6 Std. -
Mi, 01.02. 19:00 5 l/m2 in 12 Std. Schnee, Regen
Mi, 01.02. 13:00 0.5 l/m2 in 6 Std. Regen
Mi, 01.02. 7:00 0.5 l/m2 in 12 Std. Regen
Mi, 01.02. 1:00 0.5 l/m2 in 6 Std. Regen
Di, 31.01. 19:00 0.8 l/m2 in 12 Std. Regen
Di, 31.01. 13:00 0.1 l/m2 in 6 Std. Regen
Ortszeit Niederschlagsmenge Niederschlagsart
Do, 02.02. 8:30 <0.05 l/m2 in 30 Min Schneeregen
Do, 02.02. 8:20 keine Meldung -
Do, 02.02. 8:10 keine Meldung -
Do, 02.02. 8:00 <0.05 l/m2 in 1 Std. Regen
Do, 02.02. 7:50 keine Meldung -
Do, 02.02. 7:40 keine Meldung -
Do, 02.02. 7:30 0.0 l/m2 in 30 Min -
Do, 02.02. 7:00 0.0 l/m2 in 1 Std. -
Do, 02.02. 6:30 0.0 l/m2 in 30 Min -
Do, 02.02. 6:00 0.0 l/m2 in 1 Std. -
Do, 02.02. 5:30 0.0 l/m2 in 30 Min -
Ortszeit Stärke Spitze Richtung
km/h Bft. km/h Grad Sektor
Do, 02.02. 7:00 17 3 35 270° W
Do, 02.02. 1:00 20 4 44 270° W
Mi, 01.02. 19:00 20 4 67 270° W
Mi, 01.02. 13:00 26 4 61 260° W
Mi, 01.02. 7:00 22 4 44 250° W
Mi, 01.02. 1:00 20 4 46 260° W
Di, 31.01. 19:00 22 4 47 240° SW
Di, 31.01. 13:00 28 4 48 240° SW
Ortszeit Stärke Spitze Richtung
km/h Bft. km/h Grad Sektor
Do, 02.02. 8:30 18 3 40 280° W
Do, 02.02. 8:20 18 3 - 280° W
Do, 02.02. 8:10 20 4 - 270° W
Do, 02.02. 8:00 15 3 28 270° W
Do, 02.02. 7:50 15 3 - 270° W
Do, 02.02. 7:40 17 3 - 270° W
Do, 02.02. 7:30 18 3 29 280° W
Do, 02.02. 7:00 17 3 31 270° W
Do, 02.02. 6:30 20 4 31 270° W
Do, 02.02. 6:00 17 3 31 270° W
Do, 02.02. 5:30 18 3 32 270° W
Ortszeit Untergrenze Bedeckung Gattung
total tief tief mittel hoch
Do, 02.02. 7:00 3000 m 8/8 8/8 - - -
Do, 02.02. 1:00 600 m 7/8 7/8 - - -
Mi, 01.02. 19:00 330 m 8/8 8/8 - - -
Mi, 01.02. 13:00 840 m 7/8 7/8 - - -
Mi, 01.02. 7:00 630 m 7/8 7/8 - - -
Mi, 01.02. 1:00 630 m 7/8 7/8 - - -
Di, 31.01. 19:00 270 m 8/8 8/8 - - -
Di, 31.01. 13:00 510 m 7/8 7/8 - - -
Ortszeit Bedeckungsgrad in Achtel und Wolkenuntergrenze
Do, 02.02. 8:30 1(780m) 4(1140m) 8(1410m)
Do, 02.02. 8:20 1(780m) 4(1140m) 8(1410m)
Do, 02.02. 8:10 8
Do, 02.02. 8:00 3(570m) 7(1800m) 8(2100m)
Do, 02.02. 7:50 3(570m) 7(1800m) 8(2100m)
Do, 02.02. 7:40 8
Do, 02.02. 7:30 4(600m) 8(2400m) 8(3900m)
Do, 02.02. 7:00 7(3000m) 8(3900m) 8(5100m)
Do, 02.02. 6:30 2(540m) 8(5100m) 8(6600m)
Do, 02.02. 6:00 4(630m) 7(4200m) 8(5100m)
Do, 02.02. 5:30 4(660m) 7(1080m) 7(5400m)
Ortszeit Luftdruck NN (hPa) Tendenz (hPa in 3 Std.)
Do, 02.02. 7:00 1019 + 0,7
Do, 02.02. 1:00 1017 + 1,0
Mi, 01.02. 19:00 1015 + 2,1
Mi, 01.02. 13:00 1015 0,0
Mi, 01.02. 7:00 1015 - 1,9
Mi, 01.02. 1:00 1018 0,0
Di, 31.01. 19:00 1018 + 0,3
Di, 31.01. 13:00 1019 - 2,3
Ortszeit Luftdruck NN (hPa) Tendenz (hPa in 3 Std.)
Do, 02.02. 8:30 1019 + 0,9
Do, 02.02. 8:20 1019 keine Meldung
Do, 02.02. 8:10 1019 keine Meldung
Do, 02.02. 8:00 1019 + 0,8
Do, 02.02. 7:50 1019 keine Meldung
Do, 02.02. 7:40 1019 keine Meldung
Do, 02.02. 7:30 1019 + 1,0
Do, 02.02. 7:00 1019 + 0,7
Do, 02.02. 6:30 1019 + 0,8
Do, 02.02. 6:00 1019 + 0,8
Do, 02.02. 5:30 1019 + 0,9
Ortszeit Schneehöhe (cm)
Do, 02.02. 7:00 0
Do, 02.02. 1:00 0
Mi, 01.02. 19:00 0
Mi, 01.02. 13:00 0
Mi, 01.02. 7:00 0
Mi, 01.02. 1:00 0
Di, 31.01. 19:00 0
Di, 31.01. 13:00 0
Ortszeit Schneehöhe (cm)
Do, 02.02. 8:30 0
Do, 02.02. 8:20 0
Do, 02.02. 8:10 0
Do, 02.02. 8:00 0
Do, 02.02. 7:50 0
Do, 02.02. 7:40 0
Do, 02.02. 7:30 0
Do, 02.02. 7:00 0
Do, 02.02. 6:30 0
Do, 02.02. 6:00 0
Do, 02.02. 5:30 0
Link zu dieser Seite / Seite empfehlen

Das Wetter in ...